CPX462 Details

Departure: Newark Liberty International Airport (KEWR)
Arrival: Chicago/Rockford International Airport (KRFD)
Route: COATE Q436 RAAKK Q438 BERYS FNT J94 OBK V100 RFD


Current Weather Information
KEWR 171651Z VRB05KT 10SM FEW030 SCT038 SCT049 29/22 A3001 RMK AO2 SLP162 T02890217
KRFD 171654Z 10007KT 10SM FEW040 BKN150 BKN250 24/19 A2991 RMK AO2 SLP124 T02390194